Terminal Aerodrome Forecast
Issued by NWS

Home | Current Version | Previous Version | Text Only | Print | Product List | Glossary On
Versions: 1 2 3 4 5 6 7 8 9 10 11 12 13
000
FTUS43 KPAH 150300 AAA
TAFCGI
TAF AMD
KCGI 150315Z 1503/1524 33013G23KT P6SM BKN020 OVC035
     FM150600 32013KT P6SM SKC
     FM151400 36015G22KT P6SM SKC=

USA.gov is the U.S. government's official web portal to all federal, state and local government web resources and services.